Baton Rouge, LA (70806)

4:43 AM CST on February 14, 2016 (GMT -0600)
Capital Heights | | Change Station
CLOSE
Current Station
Personal Weather Station
Location: Baton Rouge, LA
Elevation: 82 ft
Nearby Weather Stations
Active Advisory: Flood Warning

Elev 82 ft 30.44 °N, 91.13 °W | Updated 9 seconds ago

Clear
Clear
45.9 °F
Feels Like 46 °F
N
0.0
Wind Variable Wind from SE
Gusts 0.0 mph

Today
High -- | Low -- °F
--% Chance of Precip.
Yesterday
High -- | Low -- °F
Precip. -- in
Pressure 30.20 in
Visibility 10.0 miles
Clouds Clear
Windchill 46 °F
Dew Point 41 °F
Humidity 82%
Rainfall 0.00 in
Snow Depth Not available.
6:46 AM 5:51 PM
Waxing Crescent, 40% visible
METAR KBTR 140953Z AUTO 08006KT 10SM CLR 07/03 A3020 RMK AO2 SLP226 T00670028 TSNO
Pressure 30.20 in
Visibility 10.0 miles
Clouds Clear
Windchill 46 °F
Dew Point 41 °F
Humidity 82%
Rainfall 0.00 in
Snow Depth Not available.
6:46 AM 5:51 PM
Waxing Crescent, 40% visible
METAR KBTR 140953Z AUTO 08006KT 10SM CLR 07/03 A3020 RMK AO2 SLP226 T00670028 TSNO

10-Day Weather Forecast

Almanac

Astronomy

Feb. 14, 2016 Rise Set
Actual Time
Civil Twilight
Nautical Twilight
Astronomical Twilight
Moon
Length of Visible Light
Length of Day
Tomorrow will be .
, % of the Moon is Illuminated

Today's Extremes

State Highs State Lows

Community

WunderPhotos

Upload Photos

1,892,765 photos uploaded!

WunderBlog® & News

Nearby

Air Quality

  Air Quality AQ Index Pollutant
Not available.

Snow Depth

Station Depth Elevation

Earthquake Activity

City Distance Mag. Time & Date
Minimum magnitude displayed is 2.5.

Coastal Water Temperatures

Place Temperature

Stations

Nearby Weather Stations

Station Location Temp. Windchill Dew Point Humidity Wind Precip. Elev Updated Type
                   

Watches & Warnings

Flood Warning
Issued: 7:56 PM CST Feb. 13, 2016 – National Weather Service

The Flood Warning continues for
the Mississippi River at Red River Landing.
* From Wednesday evening until further notice.
* At 7:00 PM Saturday the stage was 46.3 feet.
* Minor flooding is forecast.
* Flood stage is 48.0 feet.
* Forecast... the river is expected to rise above flood stage by
Thursday February 18th and then continue rising until cresting at
around 49.0 feet on Monday February 22nd.
* Impact... at 48.0 feet... access roads will be inundated and
evacuation of all river islands must be complete. Protection of
people and property in the river bottom land on the river side of
the levees must be complete.
* Impact... at 46.0 feet... river traffic will become dangerous. A levee
crevasse would flood adjacent farm land. Significant flooding of
Raccourci Island will continue and evacuation of the island is
recommended.




Lat... Lon 3103 9153 3102 9170 3071 9159 3074 9137